Time;durP1;ratioP1;P1;durP2;ratioP2;P2;SDS_P1;SDS_P2;PMS_P1;PMS_P2;Temp;Humidity;BMP_temperature;BMP_pressure;BME280_temperature;BME280_humidity;BME280_pressure;Samples;Min_cycle;Max_cycle;Signal;HPM_P1;HPM_P2
2022/02/03 00:05:40;;;;;;;;;44.25;43.00;;;;;3.17;100.00;100490.84;6305452;22;11511;-74
2022/02/03 00:27:18;;;;;;;;;64.00;54.67;;;;;3.06;100.00;100489.28;6306320;22;12153;-73
2022/02/03 00:30:17;;;;;;;;;52.50;44.25;;;;;3.09;100.00;100494.19;6286207;22;11456;-74
2022/02/03 00:48:45;;;;;;;;;80.00;60.33;;;;;3.00;100.00;100458.47;6276661;22;8781;-74
2022/02/03 00:51:45;;;;;;;;;72.00;56.33;;;;;2.84;100.00;100454.25;6256357;22;8866;-74
2022/02/03 00:54:41;;;;;;;;;76.33;64.00;;;;;2.85;100.00;100447.69;6276465;22;8879;-73
2022/02/03 00:57:44;;;;;;;;;78.00;63.33;;;;;2.81;100.00;100449.34;6276437;22;8879;-74
2022/02/03 01:00:43;;;;;;;;;88.00;65.33;;;;;2.98;100.00;100455.19;6276427;22;8791;-73
2022/02/03 01:03:16;;;;;;;;;84.00;64.67;;;;;2.89;100.00;100456.91;6261098;22;8804;-74
2022/02/03 01:06:04;;;;;;;;;82.67;62.00;;;;;2.83;100.00;100447.13;6286756;22;8756;-74
2022/02/03 01:09:01;;;;;;;;;75.67;60.33;;;;;2.70;100.00;100447.78;6276608;22;8776;-75
2022/02/03 01:12:08;;;;;;;;;81.33;67.00;;;;;2.70;100.00;100437.69;6276136;22;8811;-74
2022/02/03 01:34:14;;;;;;;;;64.33;52.67;;;;;2.70;100.00;100458.72;6286413;22;9559;-75
2022/02/03 01:44:14;;;;;;;;;90.00;72.00;;;;;2.75;100.00;100453.19;6287658;22;8812;-74
2022/02/03 01:47:01;;;;;;;;;102.00;80.00;;;;;2.80;100.00;100458.63;6317553;22;8860;-74
2022/02/03 01:53:05;;;;;;;;;107.33;86.00;;;;;2.83;100.00;100460.78;6306502;22;8781;-74
2022/02/03 01:56:05;;;;;;;;;114.00;101.67;;;;;2.68;100.00;100460.91;6306958;22;8795;-75
2022/02/03 01:59:03;;;;;;;;;132.50;107.25;;;;;2.59;100.00;100457.97;6306962;22;8949;-74
2022/02/03 02:02:01;;;;;;;;;103.00;77.67;;;;;2.59;100.00;100459.88;6306698;22;8891;-74
2022/02/03 02:05:06;;;;;;;;;99.67;75.33;;;;;2.38;100.00;100464.66;6306912;22;9423;-74
2022/02/03 02:08:20;;;;;;;;;136.75;118.25;;;;;2.49;100.00;100456.13;6306890;22;8792;-74
2022/02/03 02:11:39;;;;;;;;;139.25;109.50;;;;;2.59;100.00;100447.03;6306781;22;8886;-74
2022/02/03 02:44:58;;;;;;;;;73.00;58.33;;;;;2.71;100.00;100471.28;6306284;22;8773;-73
2022/02/03 02:48:08;;;;;;;;;74.00;61.00;;;;;2.83;100.00;100477.16;6285935;22;8785;-73
2022/02/03 02:51:08;;;;;;;;;82.67;65.33;;;;;2.83;100.00;100474.44;6307292;22;8780;-76
2022/02/03 03:29:24;;;;;;;;;94.33;71.00;;;;;2.46;100.00;100503.09;6306102;22;8793;-74
2022/02/03 03:32:44;;;;;;;;;84.67;61.33;;;;;2.49;100.00;100502.53;6305629;22;8813;-74
2022/02/03 03:35:49;;;;;;;;;112.67;91.67;;;;;2.37;100.00;100510.22;6305922;22;8870;-74
2022/02/03 03:38:49;;;;;;;;;100.00;82.00;;;;;2.34;100.00;100515.44;6285610;22;8862;-74
2022/02/03 03:41:45;;;;;;;;;103.33;75.00;;;;;2.44;100.00;100518.91;6286557;22;8785;-74
2022/02/03 03:44:43;;;;;;;;;96.33;75.67;;;;;2.46;100.00;100514.00;6305787;22;8829;-74
2022/02/03 03:47:40;;;;;;;;;97.67;75.33;;;;;2.54;100.00;100512.63;6305489;22;8777;-74
2022/02/03 03:50:38;;;;;;;;;103.00;80.67;;;;;2.61;100.00;100515.84;6305816;22;8800;-74
2022/02/03 03:53:49;;;;;;;;;95.33;72.00;;;;;2.54;100.00;100518.06;6305527;22;9566;-74
2022/02/03 03:57:02;;;;;;;;;105.33;81.00;;;;;2.56;100.00;100518.59;6305851;22;8776;-73
2022/02/03 04:00:37;;;;;;;;;107.33;87.67;;;;;2.55;100.00;100522.44;6305503;22;8854;-73
2022/02/03 04:31:53;;;;;;;;;115.00;101.25;;;;;2.22;100.00;100534.84;6305372;22;8796;-73
2022/02/03 05:05:09;;;;;;;;;114.50;99.25;;;;;1.99;100.00;100573.66;6305349;22;8781;-75
2022/02/03 05:08:31;;;;;;;;;102.67;78.67;;;;;1.92;100.00;100574.78;6284742;22;8862;-73
2022/02/03 05:11:35;;;;;;;;;102.00;83.33;;;;;1.75;100.00;100574.25;6305020;22;8797;-75
2022/02/03 05:26:36;;;;;;;;;119.00;96.25;;;;;1.83;100.00;100592.78;6150672;23;8805;-73
2022/02/03 05:52:33;;;;;;;;;88.00;67.67;;;;;2.00;100.00;100586.22;6286059;22;8838;-71
2022/02/03 06:08:21;;;;;;;;;82.00;63.00;;;;;1.90;100.00;100612.41;6277455;22;8889;-71
2022/02/03 06:21:53;;;;;;;;;91.67;72.00;;;;;2.13;100.00;100599.28;6285969;22;8792;-72
2022/02/03 06:27:37;;;;;;;;;99.67;74.33;;;;;2.21;100.00;100583.16;6274966;22;8818;-72
2022/02/03 06:30:33;;;;;;;;;123.50;106.75;;;;;2.45;100.00;100577.06;6275252;22;8784;-72
2022/02/03 06:33:28;;;;;;;;;121.00;105.00;;;;;2.51;100.00;100578.66;6255414;22;8784;-72
2022/02/03 06:36:24;;;;;;;;;106.67;89.67;;;;;2.47;100.00;100574.88;6255398;22;8773;-72
2022/02/03 06:39:30;;;;;;;;;99.67;81.00;;;;;2.31;100.00;100586.97;6275312;22;8796;-73
2022/02/03 06:42:26;;;;;;;;;91.00;70.33;;;;;2.42;100.00;100592.09;6255096;22;8868;-72
2022/02/03 06:45:45;;;;;;;;;84.33;69.00;;;;;2.51;100.00;100598.59;6274602;22;8950;-72
2022/02/03 06:48:43;;;;;;;;;80.67;65.00;;;;;2.30;100.00;100594.34;6276146;22;8786;-72
2022/02/03 06:51:47;;;;;;;;;71.00;58.67;;;;;2.13;100.00;100588.34;6274798;22;8963;-73
2022/02/03 06:54:56;;;;;;;;;94.67;73.00;;;;;2.35;100.00;100599.75;6274929;22;9503;-73
2022/02/03 06:58:08;;;;;;;;;95.67;71.00;;;;;2.31;100.00;100587.78;6274542;22;8782;-74
2022/02/03 07:01:11;;;;;;;;;96.67;80.00;;;;;2.53;100.00;100592.03;6273220;22;8970;-74
2022/02/03 07:04:16;;;;;;;;;93.67;72.67;;;;;2.77;100.00;100593.03;6275001;22;8998;-74
2022/02/03 07:07:16;;;;;;;;;99.33;81.00;;;;;2.51;100.00;100601.31;6276187;22;8778;-74
2022/02/03 07:09:49;;;;;;;;;101.67;81.00;;;;;2.45;100.00;100609.81;6283885;22;8801;-74
2022/02/03 07:12:31;;;;;;;;;99.00;83.67;;;;;2.51;100.00;100612.25;6274137;22;8829;-74
2022/02/03 07:15:27;;;;;;;;;105.00;79.67;;;;;2.66;100.00;100610.56;6293301;22;8849;-74
2022/02/03 07:18:22;;;;;;;;;108.00;91.67;;;;;2.63;100.00;100622.03;6276140;22;8814;-72
2022/02/03 07:21:18;;;;;;;;;112.25;101.75;;;;;2.68;100.00;100622.00;6273861;22;8805;-73
2022/02/03 07:24:13;;;;;;;;;119.67;99.67;;;;;2.71;100.00;100619.53;6276069;22;9308;-72
2022/02/03 07:27:09;;;;;;;;;95.00;73.00;;;;;2.83;100.00;100626.59;6276030;22;8778;-71
2022/02/03 07:30:05;;;;;;;;;92.00;71.33;;;;;2.73;100.00;100628.28;6273778;22;8818;-72
2022/02/03 07:33:02;;;;;;;;;86.67;70.00;;;;;2.78;100.00;100635.63;6272690;22;8830;-72
2022/02/03 07:35:58;;;;;;;;;84.00;68.00;;;;;2.80;100.00;100644.34;6275316;22;8854;-71
2022/02/03 07:38:40;;;;;;;;;90.00;69.33;;;;;2.80;100.00;100636.16;6284396;22;8806;-73
2022/02/03 07:41:36;;;;;;;;;78.00;63.00;;;;;2.87;100.00;100639.41;6273493;22;8770;-70
2022/02/03 07:44:31;;;;;;;;;72.67;57.00;;;;;2.92;100.00;100639.38;6294765;22;8858;-71
2022/02/03 07:47:27;;;;;;;;;91.00;67.00;;;;;2.82;100.00;100633.97;6305013;22;8776;-71
2022/02/03 07:50:23;;;;;;;;;72.00;59.67;;;;;2.96;100.00;100634.16;6304983;22;8777;-72
2022/02/03 07:53:20;;;;;;;;;86.00;67.00;;;;;2.92;100.00;100633.13;6304294;22;8805;-71
2022/02/03 07:56:15;;;;;;;;;88.67;67.67;;;;;2.96;100.00;100628.69;6304245;22;9590;-72
2022/02/03 07:59:11;;;;;;;;;86.00;67.00;;;;;2.95;100.00;100630.63;6305304;22;8793;-72
2022/02/03 08:02:07;;;;;;;;;83.00;66.33;;;;;3.01;100.00;100629.50;6284822;22;9511;-70
2022/02/03 08:05:05;;;;;;;;;144.75;121.75;;;;;3.08;100.00;100631.13;6305559;22;8769;-71
2022/02/03 08:07:34;;;;;;;;;140.00;122.50;;;;;3.10;100.00;100639.84;6315983;22;8773;-70
2022/02/03 08:10:37;;;;;;;;;125.00;107.25;;;;;3.09;100.00;100646.41;6305546;22;8803;-70
2022/02/03 08:13:45;;;;;;;;;123.50;114.50;;;;;3.10;100.00;100643.38;6304980;22;8792;-70
2022/02/03 08:17:07;;;;;;;;;162.00;149.25;;;;;3.11;100.00;100642.28;6305279;22;8785;-70
2022/02/03 08:20:05;;;;;;;;;114.67;99.67;;;;;3.19;100.00;100641.69;6305512;22;8866;-69
2022/02/03 08:22:56;;;;;;;;;69.67;40.67;;;;;3.05;100.00;100646.13;6289751;22;8792;-71
2022/02/03 08:25:28;;;;;;;;;113.00;99.00;;;;;3.08;100.00;100636.56;6293498;22;8802;-71
2022/02/03 08:31:01;;;;;;;;;97.33;72.33;;;;;3.08;100.00;100650.25;6251252;22;8821;-71
2022/02/03 08:33:31;;;;;;;;;85.33;67.33;;;;;3.27;100.00;100648.47;6315836;22;8781;-71
2022/02/03 08:36:02;;;;;;;;;75.33;59.33;;;;;3.20;100.00;100654.25;6306985;22;8785;-70
2022/02/03 08:41:10;;;;;;;;;63.25;52.50;;;;;3.25;100.00;100658.88;6306446;22;11560;-71
2022/02/03 08:43:40;;;;;;;;;42.25;40.75;;;;;3.13;100.00;100664.66;6313359;22;11460;-70
2022/02/03 08:46:35;;;;;;;;;53.00;43.50;;;;;3.19;100.00;100670.94;6304827;22;11520;-71
2022/02/03 08:49:31;;;;;;;;;48.25;44.75;;;;;3.32;100.00;100667.59;6305038;22;11560;-71
2022/02/03 08:52:38;;;;;;;;;53.25;47.25;;;;;3.30;100.00;100653.38;6284556;22;11540;-71
2022/02/03 09:59:13;;;;;;;;;44.50;40.25;;;;;3.80;100.00;100654.91;6306187;22;11499;-71
2022/02/03 10:02:14;;;;;;;;;43.00;41.00;;;;;3.83;100.00;100654.34;6306239;22;11514;-71
2022/02/03 10:05:35;;;;;;;;;74.67;60.00;;;;;3.82;100.00;100657.34;6306127;22;11640;-72
2022/02/03 10:08:33;;;;;;;;;78.00;61.00;;;;;3.65;100.00;100654.22;6285903;22;11485;-71
2022/02/03 10:11:29;;;;;;;;;80.67;61.67;;;;;3.70;100.00;100654.19;6305894;22;8811;-71
2022/02/03 10:14:36;;;;;;;;;98.00;81.33;;;;;3.67;100.00;100649.28;6287364;22;8789;-70
2022/02/03 10:17:45;;;;;;;;;100.67;79.33;;;;;3.77;100.00;100651.94;6308742;22;8836;-72
2022/02/03 10:20:48;;;;;;;;;104.67;81.33;;;;;3.71;100.00;100664.03;6306557;22;8804;-70
2022/02/03 10:24:02;;;;;;;;;96.00;73.67;;;;;3.71;100.00;100655.81;6306670;22;8859;-74
2022/02/03 10:26:58;;;;;;;;;88.33;70.33;;;;;3.71;100.00;100664.84;6307656;22;9597;-71
2022/02/03 10:30:34;;;;;;;;;107.00;88.00;;;;;3.77;100.00;100658.22;6286201;22;8784;-70
2022/02/03 10:33:35;;;;;;;;;100.33;77.00;;;;;3.78;100.00;100651.66;6263241;22;8796;-71
2022/02/03 10:36:59;;;;;;;;;97.67;74.33;;;;;3.85;100.00;100656.81;6306366;22;8788;-72
2022/02/03 10:40:25;;;;;;;;;96.00;72.00;;;;;3.90;100.00;100651.25;6306317;22;8846;-70
2022/02/03 10:46:44;;;;;;;;;45.75;40.00;;;;;3.76;99.78;100651.13;6316684;22;11499;-70
2022/02/03 10:59:07;;;;;;;;;24.25;20.25;;;;;3.78;100.00;100659.06;6306012;22;11477;-70
2022/02/03 11:08:20;;;;;;;;;105.67;85.67;;;;;3.76;100.00;100648.41;6306049;22;8815;-71
2022/02/03 11:11:22;;;;;;;;;98.50;79.50;;;;;3.80;100.00;100651.38;6285503;22;8811;-72
2022/02/03 11:14:19;;;;;;;;;97.33;78.67;;;;;3.71;100.00;100653.09;6285452;22;8934;-72
2022/02/03 11:17:17;;;;;;;;;103.33;83.00;;;;;3.76;100.00;100647.59;6306994;22;8781;-72
2022/02/03 11:19:49;;;;;;;;;84.00;68.33;;;;;3.78;100.00;100659.06;6316560;22;9387;-72
2022/02/03 12:01:06;;;;;;;;;62.50;50.25;;;;;4.06;99.72;100671.09;6305530;22;11531;-73
2022/02/03 12:07:27;;;;;;;;;58.75;49.00;;;;;4.33;99.79;100676.88;6305106;22;11603;-73
2022/02/03 12:10:55;;;;;;;;;46.75;42.75;;;;;4.14;98.24;100687.75;6284866;22;11633;-73
2022/02/03 12:20:14;;;;;;;;;79.67;65.33;;;;;4.17;97.67;100689.88;6278651;22;11624;-72
2022/02/03 12:23:32;;;;;;;;;86.33;67.67;;;;;4.26;98.23;100706.50;6314667;22;11498;-72
2022/02/03 12:26:05;;;;;;;;;107.00;85.67;;;;;4.08;97.33;100707.22;6305051;22;8817;-74
2022/02/03 12:29:24;;;;;;;;;94.00;72.67;;;;;4.14;98.18;100711.53;6305427;22;8787;-73
2022/02/03 12:32:38;;;;;;;;;99.67;79.67;;;;;4.15;97.11;100705.78;6305225;22;8836;-73
2022/02/03 12:38:52;;;;;;;;;107.67;90.67;;;;;4.19;97.55;100715.03;6307440;22;9520;-73
2022/02/03 12:42:05;;;;;;;;;107.67;92.00;;;;;4.19;98.10;100717.78;6286523;22;8804;-74
2022/02/03 12:45:24;;;;;;;;;99.67;85.33;;;;;4.15;98.66;100704.97;6275133;22;8790;-73
2022/02/03 12:48:25;;;;;;;;;115.00;100.67;;;;;4.18;98.63;100707.13;6275139;22;8873;-73
2022/02/03 12:51:22;;;;;;;;;102.67;85.00;;;;;4.22;98.46;100713.69;6277115;22;8826;-73
2022/02/03 12:54:18;;;;;;;;;99.00;79.33;;;;;4.24;98.07;100724.34;6277623;22;8840;-73
2022/02/03 12:57:25;;;;;;;;;96.67;76.67;;;;;4.14;97.90;100715.09;6275440;22;8798;-73
2022/02/03 13:00:32;;;;;;;;;104.00;82.00;;;;;4.22;98.37;100704.63;6277500;22;8790;-73
2022/02/03 13:04:00;;;;;;;;;95.33;77.67;;;;;4.24;98.46;100710.66;6277027;22;8829;-73
2022/02/03 13:07:10;;;;;;;;;88.00;68.67;;;;;4.16;97.91;100710.16;6277169;22;8804;-73
2022/02/03 13:10:09;;;;;;;;;89.67;66.67;;;;;3.95;98.19;100713.34;6277479;22;8786;-73
2022/02/03 13:13:39;;;;;;;;;84.00;63.33;;;;;4.11;98.40;100712.94;6277085;22;8789;-74
2022/02/03 13:16:36;;;;;;;;;79.33;60.67;;;;;4.05;97.91;100705.88;6277311;22;8796;-74
2022/02/03 13:22:44;;;;;;;;;78.00;64.00;;;;;4.01;98.16;100707.56;6276808;22;9501;-74
2022/02/03 13:28:55;;;;;;;;;87.00;68.00;;;;;4.06;98.61;100712.97;6277428;22;8884;-73
2022/02/03 13:32:04;;;;;;;;;91.67;71.00;;;;;3.99;98.50;100712.50;6276754;22;8883;-72
2022/02/03 13:38:05;;;;;;;;;86.67;66.00;;;;;4.06;97.98;100703.94;6276835;22;8778;-73
2022/02/03 13:41:05;;;;;;;;;98.00;71.00;;;;;3.97;97.61;100705.66;6274753;22;8786;-73
2022/02/03 13:43:42;;;;;;;;;84.00;63.67;;;;;4.04;97.68;100700.69;6247522;22;8805;-73
2022/02/03 13:46:24;;;;;;;;;70.33;56.33;;;;;4.01;97.62;100707.56;6272427;22;8867;-72
2022/02/03 13:49:22;;;;;;;;;79.00;65.33;;;;;3.99;97.95;100708.91;6273490;22;8805;-73
2022/02/03 13:52:29;;;;;;;;;91.33;67.67;;;;;3.92;97.91;100713.94;6275800;22;8897;-72
2022/02/03 14:28:19;;;;;;;;;37.75;36.00;;;;;3.88;98.20;100743.78;6285118;22;11685;-72
2022/02/03 14:30:52;;;;;;;;;51.75;44.75;;;;;3.72;97.75;100759.47;6284940;22;11503;-73
2022/02/03 14:33:28;;;;;;;;;54.25;47.25;;;;;3.76;98.08;100757.81;6285183;22;11612;-72
2022/02/03 14:36:16;;;;;;;;;58.50;49.25;;;;;3.72;97.86;100755.91;6276873;22;11531;-74
2022/02/03 14:41:51;;;;;;;;;58.25;48.00;;;;;3.66;99.02;100757.88;6271231;22;11549;-72
2022/02/03 14:44:19;;;;;;;;;61.33;53.00;;;;;3.70;98.67;100764.41;6301420;22;11594;-71
2022/02/03 14:46:47;;;;;;;;;65.75;53.75;;;;;3.80;98.87;100769.81;6276540;22;11676;-74
2022/02/03 14:49:17;;;;;;;;;61.25;50.75;;;;;3.73;99.08;100771.22;6282435;22;11516;-72
2022/02/03 14:51:55;;;;;;;;;61.25;49.50;;;;;3.60;98.59;100769.94;6283728;22;11488;-73
2022/02/03 15:00:14;;;;;;;;;66.00;54.33;;;;;3.38;99.34;100786.75;6285123;22;11532;-72
2022/02/03 15:03:10;;;;;;;;;77.00;60.67;;;;;3.49;99.62;100791.06;6276471;22;11521;-72
2022/02/03 15:06:11;;;;;;;;;65.67;51.00;;;;;3.39;99.00;100798.50;6275903;22;11603;-72
2022/02/03 15:11:17;;;;;;;;;59.33;47.67;;;;;3.33;99.09;100801.25;6283549;22;11512;-74
2022/02/03 15:13:48;;;;;;;;;73.00;55.67;;;;;3.43;99.32;100803.09;6284980;22;11517;-72
2022/02/03 15:16:16;;;;;;;;;70.67;56.67;;;;;3.43;98.92;100803.09;6285020;22;11569;-73
2022/02/03 15:19:19;;;;;;;;;74.67;57.00;;;;;3.30;100.00;100803.72;6275384;22;11602;-73
2022/02/03 15:21:47;;;;;;;;;79.00;56.00;;;;;3.33;100.00;100808.63;6285019;22;12270;-73
2022/02/03 15:24:15;;;;;;;;;85.33;62.67;;;;;3.31;100.00;100806.19;6283736;22;11567;-74
2022/02/03 15:26:43;;;;;;;;;86.00;62.33;;;;;3.24;100.00;100810.31;6284980;22;11579;-73
2022/02/03 15:29:12;;;;;;;;;68.00;54.67;;;;;3.32;100.00;100807.81;6283556;22;8794;-74
2022/02/03 15:31:42;;;;;;;;;78.67;62.67;;;;;3.35;100.00;100807.25;6284829;22;8782;-74
2022/02/03 15:34:23;;;;;;;;;80.00;63.67;;;;;3.44;100.00;100812.94;6277076;22;9491;-74
2022/02/03 15:36:53;;;;;;;;;78.67;62.67;;;;;3.40;100.00;100806.41;6285091;22;8863;-73
2022/02/03 15:39:31;;;;;;;;;71.00;53.33;;;;;3.20;100.00;100804.56;6284941;22;11526;-73
2022/02/03 15:41:59;;;;;;;;;84.67;62.33;;;;;3.17;100.00;100798.84;6284936;22;11502;-73
2022/02/03 15:44:30;;;;;;;;;92.00;70.00;;;;;3.11;100.00;100808.16;6294949;22;9474;-73
2022/02/03 15:47:04;;;;;;;;;89.67;70.33;;;;;3.17;100.00;100813.34;6288586;22;8804;-73
2022/02/03 15:50:09;;;;;;;;;88.67;68.67;;;;;3.19;100.00;100815.78;6315289;22;8879;-73
2022/02/03 16:01:11;;;;;;;;;93.33;73.00;;;;;3.28;100.00;100819.56;6314924;22;8855;-74
2022/02/03 16:03:42;;;;;;;;;100.00;72.33;;;;;3.33;100.00;100814.09;6306336;22;8777;-74
2022/02/03 16:17:20;;;;;;;;;86.67;66.00;;;;;3.34;99.38;100823.94;6315749;22;8781;-73
2022/02/03 16:25:22;;;;;;;;;101.33;75.00;;;;;3.07;100.00;100837.97;6315739;22;8770;-72
2022/02/03 16:53:14;;;;;;;;;73.00;60.00;;;;;3.07;100.00;100843.44;6306357;22;8804;-73
2022/02/03 16:55:44;;;;;;;;;77.00;60.33;;;;;3.08;100.00;100845.06;6313958;22;8864;-73
2022/02/03 16:58:13;;;;;;;;;73.67;60.00;;;;;2.97;100.00;100838.78;6314898;22;8876;-73
2022/02/03 17:01:09;;;;;;;;;68.67;57.67;;;;;2.95;100.00;100838.25;6304514;22;8906;-72
2022/02/03 17:04:05;;;;;;;;;77.00;61.00;;;;;2.87;100.00;100844.28;6303731;22;8781;-73
2022/02/03 17:07:01;;;;;;;;;74.67;57.67;;;;;2.98;100.00;100842.34;6304013;22;8789;-73
2022/02/03 17:09:56;;;;;;;;;58.00;49.00;;;;;3.03;100.00;100843.16;6284915;22;8797;-72
2022/02/03 17:12:38;;;;;;;;;67.00;53.33;;;;;2.94;100.00;100842.09;6283080;22;8797;-73
2022/02/03 17:15:07;;;;;;;;;57.00;47.00;;;;;2.89;100.00;100831.16;6314795;22;8769;-73
2022/02/03 17:17:35;;;;;;;;;69.67;57.00;;;;;2.73;100.00;100821.34;6314309;22;11545;-73
2022/02/03 17:20:34;;;;;;;;;49.33;46.00;;;;;2.88;100.00;100832.25;6304681;22;8788;-73
2022/02/03 17:23:05;;;;;;;;;42.75;41.50;;;;;3.00;100.00;100821.03;6315121;22;11471;-73
2022/02/03 17:25:46;;;;;;;;;63.00;49.67;;;;;2.87;99.71;100830.63;6308218;22;11517;-72
2022/02/03 17:29:04;;;;;;;;;63.33;53.33;;;;;2.88;99.15;100828.72;6306691;22;11550;-72
2022/02/03 18:03:27;;;;;;;;;51.67;42.00;;;;;2.65;99.12;100819.19;6307240;22;12235;-73
2022/02/03 18:18:35;;;;;;;;;41.25;40.00;;;;;2.67;99.01;100841.56;6306025;22;12205;-73
2022/02/03 20:05:58;;;;;;;;;44.75;42.50;;;;;2.47;95.90;100858.78;6305523;22;11473;-73
2022/02/03 20:09:06;;;;;;;;;48.00;44.00;;;;;2.58;96.19;100854.94;6305385;22;11542;-73
2022/02/03 20:12:01;;;;;;;;;41.25;38.50;;;;;2.47;96.36;100853.34;6305196;22;11459;-73
2022/02/03 20:14:58;;;;;;;;;49.50;45.50;;;;;2.49;96.66;100856.59;6305307;22;11456;-73
2022/02/03 20:17:30;;;;;;;;;50.75;45.50;;;;;2.46;96.68;100865.34;6315642;22;11521;-72
2022/02/03 20:20:26;;;;;;;;;62.00;50.33;;;;;2.46;97.19;100863.44;6305263;22;11508;-72
2022/02/03 20:23:23;;;;;;;;;42.50;37.75;;;;;2.50;95.35;100855.50;6305191;22;9317;-72
2022/02/03 20:26:19;;;;;;;;;47.25;41.75;;;;;2.41;94.39;100860.69;6304098;22;11548;-72
2022/02/03 20:29:07;;;;;;;;;44.00;42.00;;;;;2.39;94.02;100856.59;6306723;22;11466;-72
2022/02/03 20:32:03;;;;;;;;;36.25;35.50;;;;;2.45;93.11;100855.50;6305254;22;11578;-73
2022/02/03 20:35:00;;;;;;;;;43.75;39.50;;;;;2.43;93.44;100847.56;6305439;22;11475;-73
2022/02/03 20:37:55;;;;;;;;;45.00;40.50;;;;;2.52;93.56;100853.31;6304998;22;12093;-73
2022/02/03 20:40:51;;;;;;;;;41.00;35.75;;;;;2.50;93.54;100853.59;6304980;22;11580;-73
2022/02/03 20:43:47;;;;;;;;;33.75;33.25;;;;;2.46;93.65;100847.06;6304651;22;11480;-73
2022/02/03 20:46:42;;;;;;;;;38.75;38.75;;;;;2.43;92.97;100850.31;6305518;22;11459;-73
2022/02/03 20:49:38;;;;;;;;;49.25;43.75;;;;;2.45;92.82;100845.41;6304941;22;11490;-73
2022/02/03 20:52:35;;;;;;;;;65.33;53.33;;;;;2.43;92.62;100853.03;6304720;22;11469;-73
2022/02/03 20:55:31;;;;;;;;;53.00;46.67;;;;;2.48;92.69;100860.44;6305092;22;11510;-73
2022/02/03 20:58:27;;;;;;;;;57.33;51.33;;;;;2.38;92.73;100855.78;6306473;22;11470;-72
2022/02/03 21:01:27;;;;;;;;;53.50;48.50;;;;;2.37;93.76;100861.50;6286822;22;8773;-72
2022/02/03 21:05:23;;;;;;;;;55.25;49.00;;;;;2.47;93.87;100853.34;6307182;22;12227;-72
2022/02/03 21:07:50;;;;;;;;;40.25;39.50;;;;;2.56;93.91;100857.16;6307031;22;11513;-73
2022/02/03 21:10:46;;;;;;;;;34.75;34.00;;;;;2.53;93.87;100856.84;6286462;22;11558;-72
2022/02/03 21:13:42;;;;;;;;;43.50;42.00;;;;;2.51;93.86;100865.31;6306923;22;11580;-72
2022/02/03 21:16:39;;;;;;;;;38.50;38.50;;;;;2.64;94.35;100862.06;6306902;22;11484;-73
2022/02/03 21:19:35;;;;;;;;;51.25;45.25;;;;;2.63;93.79;100859.59;6307211;22;11509;-73
2022/02/03 21:22:31;;;;;;;;;46.75;42.25;;;;;2.65;94.11;100871.06;6307576;22;11521;-73
2022/02/03 21:28:30;;;;;;;;;50.00;45.67;;;;;2.65;94.44;100863.69;6306959;22;11476;-73
2022/02/03 21:31:26;;;;;;;;;25.50;22.00;;;;;2.63;94.86;100871.34;6306825;22;11486;-73
2022/02/03 21:33:58;;;;;;;;;56.00;48.50;;;;;2.53;95.15;100863.16;6291404;22;11449;-73
2022/02/03 21:36:55;;;;;;;;;53.33;46.00;;;;;2.45;96.02;100863.69;6306824;22;11506;-73
2022/02/03 21:39:54;;;;;;;;;73.00;61.33;;;;;2.49;96.43;100854.69;6306863;22;11488;-72
2022/02/03 21:42:51;;;;;;;;;63.67;52.33;;;;;2.47;96.69;100864.25;6306992;22;8897;-73
2022/02/03 21:45:47;;;;;;;;;50.33;42.67;;;;;2.47;96.59;100869.72;6276071;22;8787;-73
2022/02/03 21:48:15;;;;;;;;;55.67;49.00;;;;;2.41;96.75;100871.59;6277291;22;11495;-73
2022/02/03 21:50:59;;;;;;;;;56.67;47.00;;;;;2.42;96.78;100872.44;6276800;22;11564;-73
2022/02/03 21:53:31;;;;;;;;;61.00;51.33;;;;;2.46;96.23;100873.53;6284666;22;8806;-73
2022/02/03 21:56:27;;;;;;;;;63.67;50.67;;;;;2.43;96.39;100874.06;6275833;22;12233;-72
2022/02/03 21:59:22;;;;;;;;;53.33;46.67;;;;;2.47;96.53;100862.34;6275917;22;8790;-72
2022/02/03 22:02:19;;;;;;;;;63.67;51.33;;;;;2.48;96.97;100863.97;6275889;22;11515;-72
2022/02/03 22:04:46;;;;;;;;;61.67;49.67;;;;;2.43;97.19;100863.16;6286187;22;8834;-73
2022/02/03 22:07:44;;;;;;;;;53.67;47.00;;;;;2.42;97.46;100864.25;6275908;22;11600;-73
2022/02/03 22:10:40;;;;;;;;;61.00;51.00;;;;;2.46;97.17;100866.16;6275414;22;11663;-73
2022/02/03 22:13:38;;;;;;;;;54.00;48.33;;;;;2.51;96.82;100868.06;6275532;22;11523;-73
2022/02/03 22:16:18;;;;;;;;;62.67;49.67;;;;;2.49;97.35;100872.97;6277243;22;8813;-73
2022/02/03 22:19:14;;;;;;;;;63.00;51.67;;;;;2.44;97.66;100873.78;6276967;22;8885;-73
2022/02/03 22:22:35;;;;;;;;;46.67;45.00;;;;;2.33;97.76;100877.59;6275780;22;8864;-73
2022/02/03 22:42:20;;;;;;;;;65.00;53.33;;;;;2.62;98.11;100868.91;6275250;22;11476;-73
2022/02/03 22:50:11;;;;;;;;;64.67;52.00;;;;;2.43;98.23;100874.06;6306786;22;11508;-73
2022/02/03 22:52:52;;;;;;;;;63.00;52.33;;;;;2.41;98.30;100863.41;6256818;22;8880;-73
2022/02/03 22:55:49;;;;;;;;;53.00;47.67;;;;;2.48;99.24;100872.16;6306316;22;8777;-73
2022/02/03 23:01:40;;;;;;;;;54.67;47.67;;;;;2.44;98.88;100870.22;6306350;22;12267;-73
2022/02/03 23:04:38;;;;;;;;;63.00;50.00;;;;;2.25;100.00;100869.16;6305989;22;9541;-73
2022/02/03 23:07:50;;;;;;;;;65.33;51.33;;;;;2.21;100.00;100863.38;6285736;22;8784;-72
2022/02/03 23:11:03;;;;;;;;;70.67;57.00;;;;;2.21;100.00;100871.56;6305896;22;8788;-72
2022/02/03 23:22:38;;;;;;;;;52.33;47.00;;;;;2.11;100.00;100874.31;6306647;22;9520;-72
2022/02/03 23:25:09;;;;;;;;;66.33;55.00;;;;;2.10;100.00;100869.94;6316461;22;11490;-72
2022/02/03 23:30:48;;;;;;;;;49.00;45.00;;;;;2.19;100.00;100865.56;6305836;22;9541;-72
2022/02/03 23:33:44;;;;;;;;;68.33;53.67;;;;;2.12;100.00;100876.75;6305798;22;8773;-72
2022/02/03 23:36:40;;;;;;;;;72.33;56.00;;;;;2.11;100.00;100877.03;6305686;22;8804;-72
